sensor_id;sensor_type;location;lat;lon;timestamp;temperature;humidity
652;DHT22;310;48.490;9.200;2023-03-01T00:00:39;4.50;29.00
652;DHT22;310;48.490;9.200;2023-03-01T00:03:05;4.50;29.00
652;DHT22;310;48.490;9.200;2023-03-01T00:05:31;4.60;29.10
652;DHT22;310;48.490;9.200;2023-03-01T00:07:57;4.60;29.00
652;DHT22;310;48.490;9.200;2023-03-01T00:10:23;4.70;29.10
652;DHT22;310;48.490;9.200;2023-03-01T00:12:51;4.80;28.80
652;DHT22;310;48.490;9.200;2023-03-01T00:15:17;4.80;28.60
652;DHT22;310;48.490;9.200;2023-03-01T00:17:42;4.70;28.90
652;DHT22;310;48.490;9.200;2023-03-01T00:20:08;4.60;29.70
652;DHT22;310;48.490;9.200;2023-03-01T00:22:36;4.50;29.00
652;DHT22;310;48.490;9.200;2023-03-01T00:25:01;4.50;29.00
652;DHT22;310;48.490;9.200;2023-03-01T00:27:27;4.20;29.60
652;DHT22;310;48.490;9.200;2023-03-01T00:29:53;4.30;29.50
652;DHT22;310;48.490;9.200;2023-03-01T00:32:18;4.40;28.90
652;DHT22;310;48.490;9.200;2023-03-01T00:34:44;4.40;29.50
652;DHT22;310;48.490;9.200;2023-03-01T00:37:23;4.30;29.70
652;DHT22;310;48.490;9.200;2023-03-01T00:39:49;4.20;29.20
652;DHT22;310;48.490;9.200;2023-03-01T00:42:15;4.30;29.30
652;DHT22;310;48.490;9.200;2023-03-01T00:44:41;4.00;29.80
652;DHT22;310;48.490;9.200;2023-03-01T00:47:07;3.90;30.60
652;DHT22;310;48.490;9.200;2023-03-01T00:49:32;4.00;30.10
652;DHT22;310;48.490;9.200;2023-03-01T00:51:58;4.10;29.90
652;DHT22;310;48.490;9.200;2023-03-01T00:54:23;3.90;30.20
652;DHT22;310;48.490;9.200;2023-03-01T00:56:49;3.90;30.30
652;DHT22;310;48.490;9.200;2023-03-01T00:59:14;4.10;29.90
652;DHT22;310;48.490;9.200;2023-03-01T01:01:40;4.00;30.00
652;DHT22;310;48.490;9.200;2023-03-01T01:04:09;4.00;29.90
652;DHT22;310;48.490;9.200;2023-03-01T01:06:41;4.10;29.60
652;DHT22;310;48.490;9.200;2023-03-01T01:09:11;3.90;30.00
652;DHT22;310;48.490;9.200;2023-03-01T01:11:49;3.90;30.00
652;DHT22;310;48.490;9.200;2023-03-01T01:14:16;4.00;29.60
652;DHT22;310;48.490;9.200;2023-03-01T01:16:42;4.10;29.40
652;DHT22;310;48.490;9.200;2023-03-01T01:19:12;4.00;29.70
652;DHT22;310;48.490;9.200;2023-03-01T01:21:39;3.90;29.80
652;DHT22;310;48.490;9.200;2023-03-01T01:24:05;3.90;30.00
652;DHT22;310;48.490;9.200;2023-03-01T01:26:33;4.00;30.00
652;DHT22;310;48.490;9.200;2023-03-01T01:28:59;4.10;29.90
652;DHT22;310;48.490;9.200;2023-03-01T01:31:26;4.00;29.80
652;DHT22;310;48.490;9.200;2023-03-01T01:33:52;4.00;30.80
652;DHT22;310;48.490;9.200;2023-03-01T01:36:19;4.10;30.00
652;DHT22;310;48.490;9.200;2023-03-01T01:38:45;4.30;30.40
652;DHT22;310;48.490;9.200;2023-03-01T01:41:12;4.30;29.80
652;DHT22;310;48.490;9.200;2023-03-01T01:46:38;3.90;31.10
652;DHT22;310;48.490;9.200;2023-03-01T01:49:11;4.20;30.60
652;DHT22;310;48.490;9.200;2023-03-01T01:51:41;4.20;29.60
652;DHT22;310;48.490;9.200;2023-03-01T01:54:22;3.90;30.20
652;DHT22;310;48.490;9.200;2023-03-01T01:56:55;4.00;30.40
652;DHT22;310;48.490;9.200;2023-03-01T01:59:23;4.00;30.40
652;DHT22;310;48.490;9.200;2023-03-01T02:01:51;4.10;30.20
652;DHT22;310;48.490;9.200;2023-03-01T02:04:18;4.10;29.80
652;DHT22;310;48.490;9.200;2023-03-01T02:07:17;3.80;30.50
652;DHT22;310;48.490;9.200;2023-03-01T02:09:45;3.70;31.20
652;DHT22;310;48.490;9.200;2023-03-01T02:12:11;3.90;30.80
652;DHT22;310;48.490;9.200;2023-03-01T02:14:37;4.00;30.60
652;DHT22;310;48.490;9.200;2023-03-01T02:17:03;4.20;30.00
652;DHT22;310;48.490;9.200;2023-03-01T02:30:22;4.30;29.90
652;DHT22;310;48.490;9.200;2023-03-01T02:32:49;4.40;30.00
652;DHT22;310;48.490;9.200;2023-03-01T02:35:16;4.40;30.70
652;DHT22;310;48.490;9.200;2023-03-01T02:37:43;4.60;29.50
652;DHT22;310;48.490;9.200;2023-03-01T02:40:13;4.30;30.00
652;DHT22;310;48.490;9.200;2023-03-01T02:42:53;4.10;30.20
652;DHT22;310;48.490;9.200;2023-03-01T02:45:19;4.20;30.20
652;DHT22;310;48.490;9.200;2023-03-01T02:47:45;4.60;29.90
652;DHT22;310;48.490;9.200;2023-03-01T02:53:45;4.80;29.20
652;DHT22;310;48.490;9.200;2023-03-01T02:56:13;4.40;30.00
652;DHT22;310;48.490;9.200;2023-03-01T02:58:41;4.60;29.90
652;DHT22;310;48.490;9.200;2023-03-01T03:01:14;4.90;29.30
652;DHT22;310;48.490;9.200;2023-03-01T03:03:41;4.80;29.20
652;DHT22;310;48.490;9.200;2023-03-01T03:06:07;4.40;29.80
652;DHT22;310;48.490;9.200;2023-03-01T03:08:32;4.60;29.40
652;DHT22;310;48.490;9.200;2023-03-01T03:10:58;4.70;29.50
652;DHT22;310;48.490;9.200;2023-03-01T03:13:24;4.70;29.60
652;DHT22;310;48.490;9.200;2023-03-01T03:15:54;4.60;29.60
652;DHT22;310;48.490;9.200;2023-03-01T03:18:21;4.70;29.30
652;DHT22;310;48.490;9.200;2023-03-01T03:20:47;4.80;30.10
652;DHT22;310;48.490;9.200;2023-03-01T03:23:18;4.90;29.20
652;DHT22;310;48.490;9.200;2023-03-01T03:25:44;4.90;29.30
652;DHT22;310;48.490;9.200;2023-03-01T03:28:10;4.70;29.60
652;DHT22;310;48.490;9.200;2023-03-01T03:30:38;3.90;31.10
652;DHT22;310;48.490;9.200;2023-03-01T03:33:05;4.10;31.00
652;DHT22;310;48.490;9.200;2023-03-01T03:35:34;4.20;31.00
652;DHT22;310;48.490;9.200;2023-03-01T03:38:06;4.20;30.70
652;DHT22;310;48.490;9.200;2023-03-01T03:40:41;4.20;30.70
652;DHT22;310;48.490;9.200;2023-03-01T03:43:21;4.50;30.60
652;DHT22;310;48.490;9.200;2023-03-01T03:45:49;4.30;30.40
652;DHT22;310;48.490;9.200;2023-03-01T03:48:15;4.20;30.30
652;DHT22;310;48.490;9.200;2023-03-01T03:50:41;4.30;30.50
652;DHT22;310;48.490;9.200;2023-03-01T03:53:10;4.40;30.70
652;DHT22;310;48.490;9.200;2023-03-01T03:55:36;4.30;30.50
652;DHT22;310;48.490;9.200;2023-03-01T03:58:05;4.30;30.50
652;DHT22;310;48.490;9.200;2023-03-01T04:00:44;4.40;30.20
652;DHT22;310;48.490;9.200;2023-03-01T04:03:12;4.50;30.00
652;DHT22;310;48.490;9.200;2023-03-01T04:05:39;4.70;29.80
652;DHT22;310;48.490;9.200;2023-03-01T04:08:06;4.50;30.00
652;DHT22;310;48.490;9.200;2023-03-01T04:10:43;4.50;29.80
652;DHT22;310;48.490;9.200;2023-03-01T04:13:12;4.40;30.00
652;DHT22;310;48.490;9.200;2023-03-01T04:15:39;4.40;30.00
652;DHT22;310;48.490;9.200;2023-03-01T04:18:05;4.50;31.10
652;DHT22;310;48.490;9.200;2023-03-01T04:20:33;4.70;29.90
652;DHT22;310;48.490;9.200;2023-03-01T04:25:41;4.90;29.90
652;DHT22;310;48.490;9.200;2023-03-01T04:28:09;4.60;30.00
652;DHT22;310;48.490;9.200;2023-03-01T04:30:36;4.80;29.60
652;DHT22;310;48.490;9.200;2023-03-01T04:33:03;5.00;29.90
652;DHT22;310;48.490;9.200;2023-03-01T04:35:30;5.10;29.40
652;DHT22;310;48.490;9.200;2023-03-01T04:37:56;4.60;30.00
652;DHT22;310;48.490;9.200;2023-03-01T04:40:21;4.80;30.00
652;DHT22;310;48.490;9.200;2023-03-01T04:42:47;4.20;30.70
652;DHT22;310;48.490;9.200;2023-03-01T04:45:12;4.00;31.80
652;DHT22;310;48.490;9.200;2023-03-01T04:47:43;3.90;31.70
652;DHT22;310;48.490;9.200;2023-03-01T04:50:10;4.20;31.70
652;DHT22;310;48.490;9.200;2023-03-01T04:52:36;4.50;31.00
652;DHT22;310;48.490;9.200;2023-03-01T04:55:03;4.70;30.00
652;DHT22;310;48.490;9.200;2023-03-01T04:57:29;5.00;29.30
652;DHT22;310;48.490;9.200;2023-03-01T04:59:55;5.00;29.30
652;DHT22;310;48.490;9.200;2023-03-01T05:02:20;5.00;29.40
652;DHT22;310;48.490;9.200;2023-03-01T05:04:46;4.60;30.40
652;DHT22;310;48.490;9.200;2023-03-01T05:07:11;4.60;30.10
652;DHT22;310;48.490;9.200;2023-03-01T05:09:38;4.80;29.90
652;DHT22;310;48.490;9.200;2023-03-01T05:12:04;4.90;29.40
652;DHT22;310;48.490;9.200;2023-03-01T05:14:30;4.90;29.90
652;DHT22;310;48.490;9.200;2023-03-01T05:16:55;4.80;30.00
652;DHT22;310;48.490;9.200;2023-03-01T05:19:29;4.60;30.20
652;DHT22;310;48.490;9.200;2023-03-01T05:21:56;4.60;30.60
652;DHT22;310;48.490;9.200;2023-03-01T05:24:33;4.70;30.00
652;DHT22;310;48.490;9.200;2023-03-01T05:27:00;4.60;30.00
652;DHT22;310;48.490;9.200;2023-03-01T05:29:27;4.60;30.40
652;DHT22;310;48.490;9.200;2023-03-01T05:31:55;4.70;30.50
652;DHT22;310;48.490;9.200;2023-03-01T05:34:30;4.80;30.10
652;DHT22;310;48.490;9.200;2023-03-01T05:36:56;4.90;29.90
652;DHT22;310;48.490;9.200;2023-03-01T05:39:27;4.70;30.20
652;DHT22;310;48.490;9.200;2023-03-01T05:41:57;4.50;31.10
652;DHT22;310;48.490;9.200;2023-03-01T05:44:24;4.40;31.30
652;DHT22;310;48.490;9.200;2023-03-01T05:46:51;4.40;31.10
652;DHT22;310;48.490;9.200;2023-03-01T05:49:17;4.60;30.90
652;DHT22;310;48.490;9.200;2023-03-01T05:51:48;4.80;31.30
652;DHT22;310;48.490;9.200;2023-03-01T05:54:13;4.50;30.80
652;DHT22;310;48.490;9.200;2023-03-01T05:56:39;4.80;30.70
652;DHT22;310;48.490;9.200;2023-03-01T05:59:05;5.00;30.00
652;DHT22;310;48.490;9.200;2023-03-01T06:01:32;4.80;30.50
652;DHT22;310;48.490;9.200;2023-03-01T06:03:58;4.70;30.80
652;DHT22;310;48.490;9.200;2023-03-01T06:06:24;4.90;30.00
652;DHT22;310;48.490;9.200;2023-03-01T06:08:50;4.80;30.30
652;DHT22;310;48.490;9.200;2023-03-01T06:11:16;4.60;30.80
652;DHT22;310;48.490;9.200;2023-03-01T06:13:43;4.80;31.20
652;DHT22;310;48.490;9.200;2023-03-01T06:16:09;4.80;31.30
652;DHT22;310;48.490;9.200;2023-03-01T06:18:35;5.10;30.00
652;DHT22;310;48.490;9.200;2023-03-01T06:21:01;5.00;30.00
652;DHT22;310;48.490;9.200;2023-03-01T06:23:27;4.90;30.20
652;DHT22;310;48.490;9.200;2023-03-01T06:25:53;4.90;30.40
652;DHT22;310;48.490;9.200;2023-03-01T06:28:18;5.00;30.40
652;DHT22;310;48.490;9.200;2023-03-01T06:30:44;4.90;30.60
652;DHT22;310;48.490;9.200;2023-03-01T06:33:09;5.20;30.00
652;DHT22;310;48.490;9.200;2023-03-01T06:35:35;5.30;29.80
652;DHT22;310;48.490;9.200;2023-03-01T06:38:02;5.40;29.60
652;DHT22;310;48.490;9.200;2023-03-01T06:40:29;5.50;29.40
652;DHT22;310;48.490;9.200;2023-03-01T06:42:57;5.60;29.40
652;DHT22;310;48.490;9.200;2023-03-01T06:45:22;5.30;29.50
652;DHT22;310;48.490;9.200;2023-03-01T06:47:48;5.20;29.50
652;DHT22;310;48.490;9.200;2023-03-01T06:50:15;5.10;29.90
652;DHT22;310;48.490;9.200;2023-03-01T06:52:41;5.60;30.10
652;DHT22;310;48.490;9.200;2023-03-01T06:55:07;4.80;30.20
652;DHT22;310;48.490;9.200;2023-03-01T06:57:33;4.80;30.10
652;DHT22;310;48.490;9.200;2023-03-01T06:59:58;4.80;30.40
652;DHT22;310;48.490;9.200;2023-03-01T07:02:24;4.90;30.30
652;DHT22;310;48.490;9.200;2023-03-01T07:04:50;5.10;29.90
652;DHT22;310;48.490;9.200;2023-03-01T07:07:17;5.30;29.50
652;DHT22;310;48.490;9.200;2023-03-01T07:09:46;5.40;29.60
652;DHT22;310;48.490;9.200;2023-03-01T07:12:13;5.30;29.50
652;DHT22;310;48.490;9.200;2023-03-01T07:14:39;5.30;29.60
652;DHT22;310;48.490;9.200;2023-03-01T07:17:04;5.30;29.50
652;DHT22;310;48.490;9.200;2023-03-01T07:19:30;5.20;29.50
652;DHT22;310;48.490;9.200;2023-03-01T07:21:56;5.30;29.60
652;DHT22;310;48.490;9.200;2023-03-01T07:24:22;5.40;29.60
652;DHT22;310;48.490;9.200;2023-03-01T07:26:51;5.30;29.50
652;DHT22;310;48.490;9.200;2023-03-01T07:29:17;5.30;29.50
652;DHT22;310;48.490;9.200;2023-03-01T07:31:43;5.20;29.40
652;DHT22;310;48.490;9.200;2023-03-01T07:34:09;4.70;30.80
652;DHT22;310;48.490;9.200;2023-03-01T07:36:36;4.90;30.50
652;DHT22;310;48.490;9.200;2023-03-01T07:39:02;5.20;29.80
652;DHT22;310;48.490;9.200;2023-03-01T07:41:28;4.60;30.90
652;DHT22;310;48.490;9.200;2023-03-01T07:43:54;4.70;31.00
652;DHT22;310;48.490;9.200;2023-03-01T07:46:20;4.50;31.70
652;DHT22;310;48.490;9.200;2023-03-01T07:48:46;4.20;32.20
652;DHT22;310;48.490;9.200;2023-03-01T07:51:11;4.10;32.40
652;DHT22;310;48.490;9.200;2023-03-01T07:53:37;4.20;32.80
652;DHT22;310;48.490;9.200;2023-03-01T07:56:07;4.10;32.50
652;DHT22;310;48.490;9.200;2023-03-01T07:58:37;4.20;32.20
652;DHT22;310;48.490;9.200;2023-03-01T08:01:04;4.40;31.90
652;DHT22;310;48.490;9.200;2023-03-01T08:03:30;4.80;31.40
652;DHT22;310;48.490;9.200;2023-03-01T08:05:55;5.10;30.20
652;DHT22;310;48.490;9.200;2023-03-01T08:08:21;5.40;29.60
652;DHT22;310;48.490;9.200;2023-03-01T08:10:47;5.60;29.70
652;DHT22;310;48.490;9.200;2023-03-01T08:13:12;5.70;29.40
652;DHT22;310;48.490;9.200;2023-03-01T08:15:38;5.70;29.20
652;DHT22;310;48.490;9.200;2023-03-01T08:18:03;5.60;29.70
652;DHT22;310;48.490;9.200;2023-03-01T08:20:29;5.70;29.80
652;DHT22;310;48.490;9.200;2023-03-01T08:22:54;5.80;29.20
652;DHT22;310;48.490;9.200;2023-03-01T08:25:20;5.80;29.50
652;DHT22;310;48.490;9.200;2023-03-01T08:27:46;6.00;28.90
652;DHT22;310;48.490;9.200;2023-03-01T08:30:12;5.90;28.60
652;DHT22;310;48.490;9.200;2023-03-01T08:32:38;5.40;29.60
652;DHT22;310;48.490;9.200;2023-03-01T08:35:05;5.40;29.60
652;DHT22;310;48.490;9.200;2023-03-01T08:37:30;5.50;29.70
652;DHT22;310;48.490;9.200;2023-03-01T08:39:59;5.90;29.20
652;DHT22;310;48.490;9.200;2023-03-01T08:42:25;6.10;28.80
652;DHT22;310;48.490;9.200;2023-03-01T08:44:51;5.90;29.40
652;DHT22;310;48.490;9.200;2023-03-01T08:47:16;5.90;28.90
652;DHT22;310;48.490;9.200;2023-03-01T08:49:42;6.00;29.20
652;DHT22;310;48.490;9.200;2023-03-01T08:52:08;6.10;29.70
652;DHT22;310;48.490;9.200;2023-03-01T08:54:33;6.20;28.50
652;DHT22;310;48.490;9.200;2023-03-01T08:57:01;6.30;29.10
652;DHT22;310;48.490;9.200;2023-03-01T08:59:27;6.40;27.90
652;DHT22;310;48.490;9.200;2023-03-01T09:01:54;6.40;28.40
652;DHT22;310;48.490;9.200;2023-03-01T09:04:20;6.70;28.10
652;DHT22;310;48.490;9.200;2023-03-01T09:06:45;6.70;27.90
652;DHT22;310;48.490;9.200;2023-03-01T09:09:16;6.70;27.70
652;DHT22;310;48.490;9.200;2023-03-01T09:11:42;6.40;29.00
652;DHT22;310;48.490;9.200;2023-03-01T09:14:09;6.60;28.10
652;DHT22;310;48.490;9.200;2023-03-01T09:16:34;6.70;28.10
652;DHT22;310;48.490;9.200;2023-03-01T09:19:04;7.00;27.30
652;DHT22;310;48.490;9.200;2023-03-01T09:21:29;6.70;27.90
652;DHT22;310;48.490;9.200;2023-03-01T09:23:56;6.20;28.40
652;DHT22;310;48.490;9.200;2023-03-01T09:26:23;6.40;28.30
652;DHT22;310;48.490;9.200;2023-03-01T09:28:51;7.00;27.90
652;DHT22;310;48.490;9.200;2023-03-01T09:31:18;6.70;27.70
652;DHT22;310;48.490;9.200;2023-03-01T09:33:47;6.90;27.30
652;DHT22;310;48.490;9.200;2023-03-01T09:36:16;7.30;26.80
652;DHT22;310;48.490;9.200;2023-03-01T09:38:42;7.20;26.90
652;DHT22;310;48.490;9.200;2023-03-01T09:41:26;7.20;27.00
652;DHT22;310;48.490;9.200;2023-03-01T09:43:57;7.10;27.90
652;DHT22;310;48.490;9.200;2023-03-01T09:46:25;6.80;27.40
652;DHT22;310;48.490;9.200;2023-03-01T09:48:55;7.40;27.60
652;DHT22;310;48.490;9.200;2023-03-01T09:51:34;7.60;27.20
652;DHT22;310;48.490;9.200;2023-03-01T09:54:04;7.20;26.40
652;DHT22;310;48.490;9.200;2023-03-01T09:56:37;7.20;26.90
652;DHT22;310;48.490;9.200;2023-03-01T10:04:48;7.20;26.20
652;DHT22;310;48.490;9.200;2023-03-01T10:09:46;8.00;25.20
652;DHT22;310;48.490;9.200;2023-03-01T10:12:16;7.80;25.50
652;DHT22;310;48.490;9.200;2023-03-01T10:17:35;8.00;25.50
652;DHT22;310;48.490;9.200;2023-03-01T10:20:23;7.50;25.70
652;DHT22;310;48.490;9.200;2023-03-01T10:22:49;7.90;25.70
652;DHT22;310;48.490;9.200;2023-03-01T10:25:40;7.90;25.80
652;DHT22;310;48.490;9.200;2023-03-01T10:28:24;8.00;25.40
652;DHT22;310;48.490;9.200;2023-03-01T10:30:50;8.40;24.80
652;DHT22;310;48.490;9.200;2023-03-01T10:33:37;8.70;24.50
652;DHT22;310;48.490;9.200;2023-03-01T10:36:05;8.70;23.70
652;DHT22;310;48.490;9.200;2023-03-01T10:38:47;9.00;23.50
652;DHT22;310;48.490;9.200;2023-03-01T10:41:12;9.00;23.50
652;DHT22;310;48.490;9.200;2023-03-01T10:43:50;8.80;24.30
652;DHT22;310;48.490;9.200;2023-03-01T10:46:31;9.10;23.10
652;DHT22;310;48.490;9.200;2023-03-01T10:51:32;10.00;21.40
652;DHT22;310;48.490;9.200;2023-03-01T10:53:57;10.30;21.00
652;DHT22;310;48.490;9.200;2023-03-01T10:56:23;10.20;20.90
652;DHT22;310;48.490;9.200;2023-03-01T10:59:03;10.30;20.90
652;DHT22;310;48.490;9.200;2023-03-01T11:01:34;10.20;21.90
652;DHT22;310;48.490;9.200;2023-03-01T11:06:33;12.20;18.80
652;DHT22;310;48.490;9.200;2023-03-01T11:09:23;12.60;17.60
652;DHT22;310;48.490;9.200;2023-03-01T11:11:54;13.00;17.40
652;DHT22;310;48.490;9.200;2023-03-01T11:14:25;13.40;16.90
652;DHT22;310;48.490;9.200;2023-03-01T11:17:02;13.60;16.60
652;DHT22;310;48.490;9.200;2023-03-01T11:19:29;13.20;17.90
652;DHT22;310;48.490;9.200;2023-03-01T11:22:03;13.10;17.00
652;DHT22;310;48.490;9.200;2023-03-01T11:24:50;13.20;17.70
652;DHT22;310;48.490;9.200;2023-03-01T11:29:59;14.10;15.90
652;DHT22;310;48.490;9.200;2023-03-01T11:32:29;13.50;17.20
652;DHT22;310;48.490;9.200;2023-03-01T11:35:04;13.70;16.40
652;DHT22;310;48.490;9.200;2023-03-01T11:37:54;14.80;15.70
652;DHT22;310;48.490;9.200;2023-03-01T11:40:27;14.70;14.90
652;DHT22;310;48.490;9.200;2023-03-01T11:45:56;15.50;14.40
652;DHT22;310;48.490;9.200;2023-03-01T11:48:37;16.40;14.00
652;DHT22;310;48.490;9.200;2023-03-01T11:51:20;15.90;14.30
652;DHT22;310;48.490;9.200;2023-03-01T11:54:11;16.70;14.90
652;DHT22;310;48.490;9.200;2023-03-01T11:57:05;17.20;12.90
652;DHT22;310;48.490;9.200;2023-03-01T11:59:57;17.40;12.50
652;DHT22;310;48.490;9.200;2023-03-01T12:02:45;17.20;13.00
652;DHT22;310;48.490;9.200;2023-03-01T12:05:37;16.60;13.80
652;DHT22;310;48.490;9.200;2023-03-01T12:08:11;16.50;13.10
652;DHT22;310;48.490;9.200;2023-03-01T12:16:26;17.70;11.30
652;DHT22;310;48.490;9.200;2023-03-01T12:18:57;17.70;12.70
652;DHT22;310;48.490;9.200;2023-03-01T12:33:22;17.30;12.50
652;DHT22;310;48.490;9.200;2023-03-01T12:38:47;18.80;11.40
652;DHT22;310;48.490;9.200;2023-03-01T12:42:21;18.70;11.30
652;DHT22;310;48.490;9.200;2023-03-01T12:50:11;16.40;13.70
652;DHT22;310;48.490;9.200;2023-03-01T12:52:45;16.20;13.40
652;DHT22;310;48.490;9.200;2023-03-01T12:55:33;16.70;13.20
652;DHT22;310;48.490;9.200;2023-03-01T13:01:07;17.60;12.70
652;DHT22;310;48.490;9.200;2023-03-01T13:09:40;15.90;14.60
652;DHT22;310;48.490;9.200;2023-03-01T13:17:48;16.90;14.60
652;DHT22;310;48.490;9.200;2023-03-01T13:20:18;17.50;13.10
652;DHT22;310;48.490;9.200;2023-03-01T13:22:46;18.70;11.30
652;DHT22;310;48.490;9.200;2023-03-01T13:25:18;19.50;11.90
652;DHT22;310;48.490;9.200;2023-03-01T13:27:46;20.20;10.70
652;DHT22;310;48.490;9.200;2023-03-01T13:30:39;20.40;9.90
652;DHT22;310;48.490;9.200;2023-03-01T13:35:49;20.20;10.20
652;DHT22;310;48.490;9.200;2023-03-01T13:38:37;20.30;10.40
652;DHT22;310;48.490;9.200;2023-03-01T13:41:04;20.80;9.60
652;DHT22;310;48.490;9.200;2023-03-01T13:43:38;20.80;9.80
652;DHT22;310;48.490;9.200;2023-03-01T13:46:24;20.70;9.90
652;DHT22;310;48.490;9.200;2023-03-01T13:48:53;20.50;10.60
652;DHT22;310;48.490;9.200;2023-03-01T13:51:24;21.00;9.80
652;DHT22;310;48.490;9.200;2023-03-01T13:53:51;21.60;9.50
652;DHT22;310;48.490;9.200;2023-03-01T13:56:27;22.00;9.80
652;DHT22;310;48.490;9.200;2023-03-01T13:58:56;20.70;9.40
652;DHT22;310;48.490;9.200;2023-03-01T14:01:29;20.70;9.60
652;DHT22;310;48.490;9.200;2023-03-01T14:03:55;21.20;9.20
652;DHT22;310;48.490;9.200;2023-03-01T14:06:26;21.10;9.50
652;DHT22;310;48.490;9.200;2023-03-01T14:09:08;21.80;8.80
652;DHT22;310;48.490;9.200;2023-03-01T14:19:30;23.00;7.90
652;DHT22;310;48.490;9.200;2023-03-01T14:24:58;21.70;8.60
652;DHT22;310;48.490;9.200;2023-03-01T14:27:35;21.10;8.90
652;DHT22;310;48.490;9.200;2023-03-01T14:30:12;21.60;9.00
652;DHT22;310;48.490;9.200;2023-03-01T14:32:40;22.10;8.40
652;DHT22;310;48.490;9.200;2023-03-01T14:35:21;22.30;8.20
652;DHT22;310;48.490;9.200;2023-03-01T14:37:47;22.30;7.90
652;DHT22;310;48.490;9.200;2023-03-01T14:40:28;22.40;7.80
652;DHT22;310;48.490;9.200;2023-03-01T14:42:56;22.10;7.90
652;DHT22;310;48.490;9.200;2023-03-01T14:45:25;21.80;8.20
652;DHT22;310;48.490;9.200;2023-03-01T14:47:51;22.10;8.30
652;DHT22;310;48.490;9.200;2023-03-01T14:50:34;22.60;7.60
652;DHT22;310;48.490;9.200;2023-03-01T14:53:03;20.50;9.30
652;DHT22;310;48.490;9.200;2023-03-01T14:55:38;20.20;9.20
652;DHT22;310;48.490;9.200;2023-03-01T14:58:11;19.40;9.80
652;DHT22;310;48.490;9.200;2023-03-01T15:00:37;17.50;11.50
652;DHT22;310;48.490;9.200;2023-03-01T15:03:17;16.50;12.80
652;DHT22;310;48.490;9.200;2023-03-01T15:05:44;15.40;14.60
652;DHT22;310;48.490;9.200;2023-03-01T15:08:19;14.50;15.40
652;DHT22;310;48.490;9.200;2023-03-01T15:11:00;14.10;16.10
652;DHT22;310;48.490;9.200;2023-03-01T15:13:32;14.30;15.80
652;DHT22;310;48.490;9.200;2023-03-01T15:18:36;13.70;16.10
652;DHT22;310;48.490;9.200;2023-03-01T15:21:13;13.80;16.40
652;DHT22;310;48.490;9.200;2023-03-01T15:23:40;13.50;17.00
652;DHT22;310;48.490;9.200;2023-03-01T15:26:06;13.00;17.30
652;DHT22;310;48.490;9.200;2023-03-01T15:28:34;13.00;17.80
652;DHT22;310;48.490;9.200;2023-03-01T15:33:49;12.90;18.00
652;DHT22;310;48.490;9.200;2023-03-01T15:36:35;12.50;18.20
652;DHT22;310;48.490;9.200;2023-03-01T15:39:02;12.30;18.50
652;DHT22;310;48.490;9.200;2023-03-01T15:41:31;12.40;18.60
652;DHT22;310;48.490;9.200;2023-03-01T15:43:58;12.60;18.40
652;DHT22;310;48.490;9.200;2023-03-01T15:46:35;12.50;18.20
652;DHT22;310;48.490;9.200;2023-03-01T15:49:25;12.70;18.10
652;DHT22;310;48.490;9.200;2023-03-01T15:51:54;12.30;18.90
652;DHT22;310;48.490;9.200;2023-03-01T15:54:22;11.90;18.30
652;DHT22;310;48.490;9.200;2023-03-01T15:56:49;11.50;19.90
652;DHT22;310;48.490;9.200;2023-03-01T15:59:16;11.40;19.80
652;DHT22;310;48.490;9.200;2023-03-01T16:01:43;10.90;20.20
652;DHT22;310;48.490;9.200;2023-03-01T16:04:13;11.10;20.10
652;DHT22;310;48.490;9.200;2023-03-01T16:06:51;11.20;19.70
652;DHT22;310;48.490;9.200;2023-03-01T16:09:24;11.20;20.40
652;DHT22;310;48.490;9.200;2023-03-01T16:11:51;11.40;20.20
652;DHT22;310;48.490;9.200;2023-03-01T16:14:17;11.20;20.30
652;DHT22;310;48.490;9.200;2023-03-01T16:16:44;11.60;19.70
652;DHT22;310;48.490;9.200;2023-03-01T16:19:09;11.20;20.30
652;DHT22;310;48.490;9.200;2023-03-01T16:21:36;11.00;19.60
652;DHT22;310;48.490;9.200;2023-03-01T16:24:02;11.20;20.30
652;DHT22;310;48.490;9.200;2023-03-01T16:26:27;11.40;19.80
652;DHT22;310;48.490;9.200;2023-03-01T16:28:56;11.30;19.80
652;DHT22;310;48.490;9.200;2023-03-01T16:31:23;11.10;20.10
652;DHT22;310;48.490;9.200;2023-03-01T16:33:49;11.40;19.80
652;DHT22;310;48.490;9.200;2023-03-01T16:36:18;11.40;19.80
652;DHT22;310;48.490;9.200;2023-03-01T16:38:44;10.70;21.10
652;DHT22;310;48.490;9.200;2023-03-01T16:41:13;10.90;20.20
652;DHT22;310;48.490;9.200;2023-03-01T16:43:38;11.40;19.80
652;DHT22;310;48.490;9.200;2023-03-01T16:46:31;11.10;19.60
652;DHT22;310;48.490;9.200;2023-03-01T16:48:56;10.90;20.00
652;DHT22;310;48.490;9.200;2023-03-01T16:51:23;10.70;20.40
652;DHT22;310;48.490;9.200;2023-03-01T16:53:49;10.70;20.10
652;DHT22;310;48.490;9.200;2023-03-01T16:56:16;10.70;20.90
652;DHT22;310;48.490;9.200;2023-03-01T16:58:43;10.50;20.60
652;DHT22;310;48.490;9.200;2023-03-01T17:01:19;10.50;20.70
652;DHT22;310;48.490;9.200;2023-03-01T17:03:46;10.60;21.20
652;DHT22;310;48.490;9.200;2023-03-01T17:06:14;11.00;19.80
652;DHT22;310;48.490;9.200;2023-03-01T17:08:41;10.50;20.30
652;DHT22;310;48.490;9.200;2023-03-01T17:11:09;10.70;20.50
652;DHT22;310;48.490;9.200;2023-03-01T17:13:36;11.00;20.00
652;DHT22;310;48.490;9.200;2023-03-01T17:16:04;10.90;19.90
652;DHT22;310;48.490;9.200;2023-03-01T17:18:30;10.50;20.50
652;DHT22;310;48.490;9.200;2023-03-01T17:20:55;10.70;20.60
652;DHT22;310;48.490;9.200;2023-03-01T17:23:21;10.80;20.20
652;DHT22;310;48.490;9.200;2023-03-01T17:25:46;10.90;20.20
652;DHT22;310;48.490;9.200;2023-03-01T17:28:13;10.40;20.80
652;DHT22;310;48.490;9.200;2023-03-01T17:30:45;10.60;21.10
652;DHT22;310;48.490;9.200;2023-03-01T17:33:13;10.40;20.90
652;DHT22;310;48.490;9.200;2023-03-01T17:35:38;10.40;20.80
652;DHT22;310;48.490;9.200;2023-03-01T17:38:04;10.60;20.70
652;DHT22;310;48.490;9.200;2023-03-01T17:40:31;10.70;20.60
652;DHT22;310;48.490;9.200;2023-03-01T17:42:57;10.70;20.90
652;DHT22;310;48.490;9.200;2023-03-01T17:45:23;10.70;20.40
652;DHT22;310;48.490;9.200;2023-03-01T17:47:49;10.90;20.20
652;DHT22;310;48.490;9.200;2023-03-01T17:50:15;10.90;20.10
652;DHT22;310;48.490;9.200;2023-03-01T17:52:40;11.00;20.30
652;DHT22;310;48.490;9.200;2023-03-01T17:55:07;11.30;20.20
652;DHT22;310;48.490;9.200;2023-03-01T17:57:33;11.20;20.70
652;DHT22;310;48.490;9.200;2023-03-01T17:59:59;11.30;19.80
652;DHT22;310;48.490;9.200;2023-03-01T18:02:25;11.50;20.50
652;DHT22;310;48.490;9.200;2023-03-01T18:04:56;11.00;20.60
652;DHT22;310;48.490;9.200;2023-03-01T18:07:25;11.10;20.70
652;DHT22;310;48.490;9.200;2023-03-01T18:09:51;11.00;20.40
652;DHT22;310;48.490;9.200;2023-03-01T18:12:17;11.20;19.70
652;DHT22;310;48.490;9.200;2023-03-01T18:14:42;11.10;20.10
652;DHT22;310;48.490;9.200;2023-03-01T18:17:08;11.20;20.20
652;DHT22;310;48.490;9.200;2023-03-01T18:19:37;11.30;20.90
652;DHT22;310;48.490;9.200;2023-03-01T18:22:06;11.00;20.90
652;DHT22;310;48.490;9.200;2023-03-01T18:24:32;11.10;20.30
652;DHT22;310;48.490;9.200;2023-03-01T18:26:58;11.10;20.60
652;DHT22;310;48.490;9.200;2023-03-01T18:29:24;11.10;20.50
652;DHT22;310;48.490;9.200;2023-03-01T18:31:50;11.00;21.00
652;DHT22;310;48.490;9.200;2023-03-01T18:34:15;11.30;20.40
652;DHT22;310;48.490;9.200;2023-03-01T18:36:41;11.20;19.70
652;DHT22;310;48.490;9.200;2023-03-01T18:39:07;11.10;20.50
652;DHT22;310;48.490;9.200;2023-03-01T18:41:34;11.20;20.60